Terminal Aerodrome Forecast
Issued by NWS

Home | Current Version | Previous Version | Text Only | Print | Product List | Glossary On
Versions: 1 2 3 4 5 6 7 8 9 10 11 12 13 14 15 16 17 18 19 20 21 22 23 24 25 26 27 28 29 30 31 32 33 34 35 36 37 38
000
FTAK31 PANC 112336
TAFADQ
TAF
PADQ 112336Z 1200/1224 10018G28KT 2SM -SHRA BR BKN010 OVC015
      TEMPO 1200/1204 5SM -SHRA BKN015 OVC025
     FM120600 02010KT 6SM -SHRA BR SCT005 OVC013=

USA.gov is the U.S. government's official web portal to all federal, state and local government web resources and services.